Time;durP1;ratioP1;P1;durP2;ratioP2;P2;SDS_P1;SDS_P2;PMS_P1;PMS_P2;Temp;Humidity;BMP_temperature;BMP_pressure;BME280_temperature;BME280_humidity;BME280_pressure;Samples;Min_cycle;Max_cycle;Signal;HPM_P1;HPM_P2
2021/04/22 00:00:04;;;;;;;14.03;10.10;;;;;;;11.27;63.39;96254.34;5075026;28;20507;-86
2021/04/22 00:02:31;;;;;;;17.27;11.17;;;;;;;11.19;63.56;96256.34;5074735;28;20497;-86
2021/04/22 00:04:57;;;;;;;17.77;12.57;;;;;;;11.18;63.93;96257.63;5074975;28;20465;-86
2021/04/22 00:07:24;;;;;;;16.10;11.10;;;;;;;11.16;64.35;96255.47;5075075;28;20506;-86
2021/04/22 00:09:50;;;;;;;14.03;10.70;;;;;;;11.25;63.96;96254.16;5077149;28;20570;-86
2021/04/22 00:12:16;;;;;;;14.10;10.83;;;;;;;11.26;63.94;96255.63;5079111;28;20444;-86
2021/04/22 00:14:43;;;;;;;14.80;10.70;;;;;;;11.24;63.98;96261.56;5078582;28;20964;-86
2021/04/22 00:17:10;;;;;;;16.53;11.10;;;;;;;11.17;64.31;96256.91;5079090;28;20420;-86
2021/04/22 00:19:37;;;;;;;15.67;11.30;;;;;;;11.20;64.71;96257.81;5078542;28;20449;-85
2021/04/22 00:22:04;;;;;;;14.90;10.37;;;;;;;11.20;64.62;96257.81;5079224;28;20529;-88
2021/04/22 00:24:31;;;;;;;15.40;9.97;;;;;;;11.28;63.96;96263.88;5079383;28;20468;-88
2021/04/22 00:26:57;;;;;;;17.60;10.60;;;;;;;11.31;64.42;96265.50;5079437;28;20471;-88
2021/04/22 00:29:23;;;;;;;10.53;9.43;;;;;;;11.29;64.26;96265.31;5078347;28;20499;-88
2021/04/22 00:31:49;;;;;;;16.17;11.07;;;;;;;11.37;63.98;96268.69;5079130;28;20439;-87
2021/04/22 00:34:15;;;;;;;15.73;10.93;;;;;;;11.37;64.03;96271.41;5078316;28;20434;-86
2021/04/22 00:36:42;;;;;;;16.23;12.20;;;;;;;11.50;63.55;96275.84;5077951;28;20480;-86
2021/04/22 00:39:08;;;;;;;17.43;11.00;;;;;;;11.47;64.29;96272.25;5078267;28;20528;-86
2021/04/22 00:41:34;;;;;;;16.20;11.27;;;;;;;11.50;63.86;96270.44;5078024;28;20437;-85
2021/04/22 00:44:01;;;;;;;17.23;11.97;;;;;;;11.42;64.74;96267.78;5077798;28;20475;-86
2021/04/22 00:46:28;;;;;;;18.13;12.83;;;;;;;11.48;64.14;96267.59;5077588;28;20467;-86
2021/04/22 00:48:54;;;;;;;13.57;11.20;;;;;;;11.45;64.26;96280.22;5077600;28;20572;-86
2021/04/22 00:51:20;;;;;;;14.80;10.33;;;;;;;11.41;64.88;96271.75;5077563;28;20425;-86
2021/04/22 00:53:47;;;;;;;18.20;11.93;;;;;;;11.53;64.26;96272.03;5078747;28;20525;-86
2021/04/22 00:56:14;;;;;;;16.20;11.87;;;;;;;11.58;63.89;96271.88;5078389;28;20538;-86
2021/04/22 00:58:40;;;;;;;16.10;11.00;;;;;;;11.59;63.64;96269.88;5077778;28;20586;-86
2021/04/22 01:01:06;;;;;;;14.63;10.80;;;;;;;11.58;64.22;96274.56;5077533;28;20452;-86
2021/04/22 01:03:32;;;;;;;16.57;10.53;;;;;;;11.61;64.54;96270.03;5077343;28;20445;-86
2021/04/22 01:06:00;;;;;;;18.80;10.47;;;;;;;11.68;64.23;96269.28;5077119;28;20432;-86
2021/04/22 01:08:27;;;;;;;17.30;13.20;;;;;;;11.63;65.36;96264.78;5078012;28;20464;-86
2021/04/22 01:10:54;;;;;;;18.53;12.73;;;;;;;11.65;66.44;96268.38;5078107;28;20426;-86
2021/04/22 01:13:21;;;;;;;20.13;13.70;;;;;;;11.64;66.98;96261.56;5078087;28;20559;-87
2021/04/22 01:15:48;;;;;;;16.90;12.93;;;;;;;11.46;67.93;96262.00;5078067;28;20485;-87
2021/04/22 01:18:14;;;;;;;20.97;13.70;;;;;;;11.49;67.97;96260.91;5078029;28;20896;-87
2021/04/22 01:20:42;;;;;;;17.03;12.80;;;;;;;11.45;68.86;96255.88;5076505;28;20510;-87
2021/04/22 01:23:10;;;;;;;23.47;14.20;;;;;;;11.42;69.74;96248.16;5077868;28;20457;-87
2021/04/22 01:25:39;;;;;;;20.57;14.60;;;;;;;11.37;70.64;96238.28;5077915;28;20471;-87
2021/04/22 01:28:07;;;;;;;18.93;15.37;;;;;;;11.38;69.29;96235.03;5077755;28;20429;-88
2021/04/22 01:30:36;;;;;;;18.40;13.57;;;;;;;11.39;70.52;96239.16;5077875;28;20521;-87
2021/04/22 01:33:03;;;;;;;19.47;14.50;;;;;;;11.24;73.30;96248.03;5077693;28;20459;-87
2021/04/22 01:35:32;;;;;;;20.53;14.53;;;;;;;11.16;73.96;96252.06;5077111;28;20560;-87
2021/04/22 01:38:00;;;;;;;23.10;14.33;;;;;;;11.08;73.72;96246.69;5077626;28;20448;-87
2021/04/22 01:40:28;;;;;;;17.77;14.40;;;;;;;11.19;72.72;96250.97;5077459;28;20412;-87
2021/04/22 01:42:55;;;;;;;21.10;14.77;;;;;;;11.15;73.05;96253.34;5076892;28;20405;-87
2021/04/22 01:45:22;;;;;;;22.50;14.93;;;;;;;11.19;73.24;96251.69;5077492;28;20510;-87
2021/04/22 01:47:48;;;;;;;22.27;15.63;;;;;;;11.32;71.75;96258.81;5077021;28;20782;-87
2021/04/22 01:50:17;;;;;;;18.83;14.50;;;;;;;11.35;70.36;96257.00;5077170;28;20446;-87
2021/04/22 01:52:44;;;;;;;20.03;15.20;;;;;;;11.38;71.16;96259.34;5077411;28;20505;-87
2021/04/22 01:55:14;;;;;;;17.07;14.00;;;;;;;11.45;69.83;96261.28;5077305;28;20863;-88
2021/04/22 01:57:42;;;;;;;19.13;14.43;;;;;;;11.51;69.74;96269.91;5077922;28;20400;-87
2021/04/22 02:00:14;;;;;;;19.00;14.60;;;;;;;11.51;69.11;96269.91;5077471;28;20423;-87
2021/04/22 02:02:41;;;;;;;19.23;13.90;;;;;;;11.53;68.73;96267.38;5069602;28;20416;-87
2021/04/22 02:05:10;;;;;;;20.20;15.17;;;;;;;11.51;69.21;96280.72;5080356;28;20527;-87
2021/04/22 02:07:36;;;;;;;21.70;13.63;;;;;;;11.46;69.77;96281.66;5085394;28;20453;-87
2021/04/22 02:10:03;;;;;;;18.70;14.53;;;;;;;11.43;69.69;96285.44;5099466;28;20489;-89
2021/04/22 02:12:29;;;;;;;23.90;16.50;;;;;;;11.30;71.20;96285.69;5099522;28;20461;-88
2021/04/22 02:14:56;;;;;;;21.50;17.80;;;;;;;11.23;72.76;96287.13;5094667;28;20518;-85
2021/04/22 02:17:22;;;;;;;24.83;17.07;;;;;;;11.06;75.39;96286.28;5079110;28;20429;-85
2021/04/22 02:19:48;;;;;;;31.97;17.50;;;;;;;10.98;76.10;96297.13;5076156;28;20449;-86
2021/04/22 02:22:14;;;;;;;37.40;19.87;;;;;;;10.82;77.11;96301.09;5076056;28;20422;-86
2021/04/22 02:24:40;;;;;;;28.23;20.10;;;;;;;10.66;78.16;96295.00;5079340;28;20440;-86
2021/04/22 02:27:07;;;;;;;28.60;20.00;;;;;;;10.58;78.00;96288.91;5081000;28;21050;-86
2021/04/22 02:29:33;;;;;;;30.90;20.97;;;;;;;10.41;79.25;96296.84;5080313;28;20452;-86
2021/04/22 02:32:00;;;;;;;34.30;21.70;;;;;;;10.39;79.20;96293.25;5080836;28;20448;-87
2021/04/22 02:34:26;;;;;;;31.20;21.60;;;;;;;10.37;79.98;96299.16;5078943;28;20889;-87
2021/04/22 02:36:53;;;;;;;32.97;21.63;;;;;;;10.26;80.58;96306.91;5075962;28;20546;-86
2021/04/22 02:39:19;;;;;;;30.13;22.90;;;;;;;10.38;79.95;96303.31;5075899;28;20416;-87
2021/04/22 02:41:45;;;;;;;31.80;23.50;;;;;;;10.27;80.30;96292.88;5076248;28;20416;-87
2021/04/22 02:44:11;;;;;;;41.00;25.73;;;;;;;10.30;79.67;96299.91;5076034;28;20459;-86
2021/04/22 02:46:37;;;;;;;39.20;25.53;;;;;;;10.07;80.71;96304.53;5076036;28;20505;-86
2021/04/22 02:49:05;;;;;;;42.20;26.27;;;;;;;10.14;80.92;96303.84;5076006;28;20414;-86
2021/04/22 02:51:31;;;;;;;42.00;25.93;;;;;;;10.15;80.60;96297.19;5077080;28;20506;-85
2021/04/22 02:53:57;;;;;;;45.70;27.60;;;;;;;10.15;81.21;96306.00;5075606;28;20498;-86
2021/04/22 02:56:23;;;;;;;42.00;26.70;;;;;;;10.00;81.79;96313.31;5076140;28;20489;-86
2021/04/22 02:58:49;;;;;;;39.67;27.67;;;;;;;9.97;81.98;96303.59;5075809;28;20437;-86
2021/04/22 03:01:15;;;;;;;38.50;26.70;;;;;;;9.91;82.23;96311.13;5075714;28;20464;-86
2021/04/22 03:03:41;;;;;;;38.10;26.47;;;;;;;9.87;81.94;96302.69;5076245;28;20436;-87
2021/04/22 03:06:08;;;;;;;39.33;25.30;;;;;;;9.85;81.52;96310.59;5075703;28;20461;-86
2021/04/22 03:08:34;;;;;;;40.70;26.97;;;;;;;9.84;81.82;96309.16;5075907;28;20420;-86
2021/04/22 03:11:00;;;;;;;40.13;28.33;;;;;;;9.93;81.35;96319.44;5076133;28;20453;-88
2021/04/22 03:13:26;;;;;;;43.23;26.13;;;;;;;9.85;81.98;96319.41;5076066;28;20923;-88
2021/04/22 03:15:52;;;;;;;41.17;27.40;;;;;;;9.89;82.01;96319.06;5075839;28;20489;-87
2021/04/22 03:18:18;;;;;;;38.60;26.93;;;;;;;9.81;83.22;96315.59;5076328;28;20440;-88
2021/04/22 03:20:45;;;;;;;41.27;26.07;;;;;;;9.74;82.81;96308.97;5075906;28;20524;-87
2021/04/22 03:23:12;;;;;;;40.83;26.60;;;;;;;9.72;82.77;96306.06;5076321;28;20459;-87
2021/04/22 03:25:38;;;;;;;40.90;27.67;;;;;;;9.66;82.64;96319.72;5076446;28;20465;-88
2021/04/22 03:28:05;;;;;;;38.00;27.37;;;;;;;9.60;83.35;96327.25;5076479;28;20441;-87
2021/04/22 03:30:33;;;;;;;39.63;25.40;;;;;;;9.64;82.63;96322.22;5076166;28;20416;-89
2021/04/22 03:32:59;;;;;;;38.50;24.83;;;;;;;9.49;82.96;96322.16;5076665;28;20416;-88
2021/04/22 03:35:26;;;;;;;39.63;26.60;;;;;;;9.44;83.18;96322.31;5076390;28;20535;-88
2021/04/22 03:37:53;;;;;;;36.10;24.23;;;;;;;9.58;82.74;96323.63;5075580;28;20868;-86
2021/04/22 03:40:22;;;;;;;40.50;25.13;;;;;;;9.59;82.80;96328.47;5075170;28;20503;-87
2021/04/22 03:42:49;;;;;;;38.30;24.60;;;;;;;9.59;82.42;96333.88;5075269;28;20441;-86
2021/04/22 03:45:16;;;;;;;38.50;24.90;;;;;;;9.53;82.60;96333.31;5078968;28;20442;-86
2021/04/22 03:47:43;;;;;;;40.10;24.57;;;;;;;9.38;83.31;96337.91;5079549;28;21003;-86
2021/04/22 03:50:12;;;;;;;37.57;23.07;;;;;;;9.34;83.65;96337.53;5079842;28;20814;-86
2021/04/22 03:52:38;;;;;;;33.73;24.97;;;;;;;9.26;83.70;96348.28;5079333;28;20449;-85
2021/04/22 03:55:06;;;;;;;36.33;24.07;;;;;;;9.32;83.35;96346.16;5079866;28;20848;-86
2021/04/22 03:57:33;;;;;;;31.67;21.23;;;;;;;9.14;83.92;96339.06;5079979;28;20479;-86
2021/04/22 04:00:00;;;;;;;36.77;23.20;;;;;;;9.01;84.98;96341.84;5079924;28;20445;-87
2021/04/22 04:02:26;;;;;;;38.30;24.83;;;;;;;8.99;84.53;96347.75;5079913;28;20420;-87
2021/04/22 04:04:53;;;;;;;38.47;25.80;;;;;;;9.03;84.63;96358.19;5080084;28;20469;-87
2021/04/22 04:07:19;;;;;;;39.13;23.53;;;;;;;8.97;84.91;96355.66;5080673;28;20507;-86
2021/04/22 04:09:45;;;;;;;33.67;24.30;;;;;;;9.01;84.65;96361.44;5083611;28;20540;-85
2021/04/22 04:12:11;;;;;;;41.10;23.17;;;;;;;8.89;85.44;96354.91;5082209;28;20499;-86
2021/04/22 04:14:38;;;;;;;32.47;24.73;;;;;;;8.77;86.00;96364.47;5080658;28;20523;-87
2021/04/22 04:17:04;;;;;;;36.07;23.27;;;;;;;8.80;85.95;96366.09;5079518;28;20508;-87
2021/04/22 04:19:31;;;;;;;36.83;25.00;;;;;;;8.68;86.79;96361.56;5080602;28;20459;-85
2021/04/22 04:21:57;;;;;;;37.30;25.70;;;;;;;8.62;86.69;96380.50;5079657;28;20460;-85
2021/04/22 04:24:23;;;;;;;34.73;23.60;;;;;;;8.60;86.57;96359.53;5080198;28;20496;-86
2021/04/22 04:26:49;;;;;;;35.47;25.00;;;;;;;8.51;87.13;96370.75;5080780;28;20467;-86
2021/04/22 04:29:15;;;;;;;36.50;23.73;;;;;;;8.60;86.96;96369.56;5080126;28;20419;-87
2021/04/22 04:31:42;;;;;;;36.10;23.43;;;;;;;8.47;86.92;96380.38;5080064;28;20453;-88
2021/04/22 04:34:08;;;;;;;41.43;26.40;;;;;;;8.42;87.28;96373.91;5081435;28;20445;-88
2021/04/22 04:36:34;;;;;;;43.47;25.00;;;;;;;8.42;87.25;96379.28;5081071;28;20459;-87
2021/04/22 04:39:00;;;;;;;39.93;24.50;;;;;;;8.31;87.07;96384.19;5081964;28;20499;-88
2021/04/22 04:41:27;;;;;;;39.40;25.80;;;;;;;8.31;87.46;96390.28;5081917;28;20880;-88
2021/04/22 04:43:53;;;;;;;39.57;24.80;;;;;;;8.25;87.84;96403.09;5082244;28;20968;-87
2021/04/22 04:46:19;;;;;;;39.03;23.47;;;;;;;8.26;87.02;96403.81;5080769;28;20510;-87
2021/04/22 04:48:46;;;;;;;35.83;24.53;;;;;;;8.15;87.99;96404.78;5082022;28;20807;-87
2021/04/22 04:51:12;;;;;;;37.97;23.40;;;;;;;8.23;87.77;96413.66;5081522;28;20514;-88
2021/04/22 04:53:39;;;;;;;35.30;24.70;;;;;;;8.16;87.31;96419.66;5081574;28;20437;-87
2021/04/22 04:56:06;;;;;;;35.13;22.87;;;;;;;8.34;86.84;96420.75;5083517;28;20841;-87
2021/04/22 04:58:32;;;;;;;36.33;24.17;;;;;;;8.27;86.56;96422.09;5081890;28;20449;-88
2021/04/22 05:00:58;;;;;;;40.77;26.00;;;;;;;8.28;87.25;96428.22;5083138;28;20454;-87
2021/04/22 05:03:24;;;;;;;33.57;22.50;;;;;;;8.33;86.74;96427.41;5082496;28;20481;-87
2021/04/22 05:05:51;;;;;;;33.73;23.87;;;;;;;8.55;85.70;96435.66;5083716;28;20514;-87
2021/04/22 05:08:17;;;;;;;35.27;24.57;;;;;;;8.56;84.87;96437.13;5086265;28;20529;-88
2021/04/22 05:10:43;;;;;;;39.30;22.67;;;;;;;8.49;85.33;96431.66;5081163;28;20513;-86
2021/04/22 05:13:09;;;;;;;33.90;24.00;;;;;;;8.65;85.00;96440.59;5091869;28;20434;-87
2021/04/22 05:15:35;;;;;;;45.87;25.53;;;;;;;8.86;83.80;96435.94;5088805;28;20482;-88
2021/04/22 05:18:01;;;;;;;35.80;24.10;;;;;;;8.99;82.95;96435.88;5084817;28;20438;-88
2021/04/22 05:20:27;;;;;;;34.70;23.30;;;;;;;9.03;82.35;96445.03;5082289;28;20408;-86
2021/04/22 05:22:54;;;;;;;32.57;22.73;;;;;;;9.17;81.71;96453.75;5082175;28;20605;-86
2021/04/22 05:25:20;;;;;;;37.60;24.33;;;;;;;9.50;79.89;96462.94;5082801;28;20492;-86
2021/04/22 05:27:46;;;;;;;33.90;21.67;;;;;;;9.73;78.53;96465.75;5084146;28;20424;-87
2021/04/22 05:30:13;;;;;;;38.20;22.70;;;;;;;9.69;78.48;96471.50;5083026;28;20775;-86
2021/04/22 05:32:39;;;;;;;36.63;23.20;;;;;;;9.33;80.22;96468.78;5079385;28;20523;-87
2021/04/22 05:35:07;;;;;;;34.63;21.27;;;;;;;9.49;79.47;96477.66;5079388;28;20529;-88
2021/04/22 05:37:33;;;;;;;34.17;22.13;;;;;;;9.52;79.37;96474.63;5081329;28;20477;-89
2021/04/22 05:40:00;;;;;;;37.83;23.27;;;;;;;9.56;79.22;96474.28;5086509;28;20451;-88
2021/04/22 05:42:26;;;;;;;29.80;22.20;;;;;;;9.77;78.54;96474.22;5081023;28;20455;-89
2021/04/22 05:44:52;;;;;;;34.37;22.00;;;;;;;9.79;77.32;96477.09;5081044;28;20475;-88
2021/04/22 05:47:18;;;;;;;34.37;22.90;;;;;;;9.68;77.78;96470.75;5081720;28;20488;-89
2021/04/22 05:49:44;;;;;;;27.43;21.17;;;;;;;9.71;78.41;96477.06;5080881;28;20407;-88
2021/04/22 05:52:10;;;;;;;35.43;20.63;;;;;;;9.88;77.34;96474.63;5081421;28;20438;-90
2021/04/22 05:54:36;;;;;;;30.60;21.67;;;;;;;10.11;75.96;96478.16;5071929;28;20500;-88
2021/04/22 05:57:03;;;;;;;35.27;21.97;;;;;;;10.11;75.68;96485.53;5064771;28;20985;-88
2021/04/22 05:59:29;;;;;;;34.80;22.60;;;;;;;9.88;77.05;96493.50;5079593;28;20459;-88
2021/04/22 06:01:56;;;;;;;30.13;21.37;;;;;;;9.71;77.43;96492.53;5078674;28;20961;-86
2021/04/22 06:04:32;;;;;;;36.23;22.07;;;;;;;9.68;77.47;96500.41;5083571;28;20499;-90
2021/04/22 06:06:59;;;;;;;31.40;20.60;;;;;;;9.56;78.31;96510.03;5084119;28;20414;-88
2021/04/22 06:09:26;;;;;;;34.17;22.93;;;;;;;9.54;78.78;96504.44;5079249;28;20521;-84
2021/04/22 06:11:53;;;;;;;33.80;23.23;;;;;;;9.54;78.72;96507.16;5080070;28;20464;-84
2021/04/22 06:14:23;;;;;;;39.87;22.33;;;;;;;9.37;79.64;96512.22;5083198;28;20440;-88
2021/04/22 06:16:51;;;;;;;31.13;21.70;;;;;;;9.28;79.78;96512.69;5066245;28;20497;-86
2021/04/22 06:19:17;;;;;;;36.10;21.80;;;;;;;9.28;79.86;96509.28;5071128;28;20438;-88
2021/04/22 06:21:46;;;;;;;33.97;21.83;;;;;;;9.17;79.96;96515.66;5077970;28;20405;-87
2021/04/22 06:24:15;;;;;;;35.33;23.17;;;;;;;8.92;81.46;96520.66;5064868;28;20520;-87
2021/04/22 06:26:43;;;;;;;32.10;20.93;;;;;;;8.94;81.67;96517.44;5051920;28;20481;-87
2021/04/22 06:29:10;;;;;;;33.40;22.97;;;;;;;9.14;80.81;96535.56;5062524;28;20440;-89
2021/04/22 06:31:37;;;;;;;34.90;22.80;;;;;;;9.22;81.36;96528.28;5060438;28;20485;-90
2021/04/22 06:34:05;;;;;;;37.33;24.27;;;;;;;9.09;80.99;96531.03;5062423;28;20429;-88
2021/04/22 06:36:33;;;;;;;38.23;23.50;;;;;;;8.65;82.49;96540.81;5062197;28;20480;-87
2021/04/22 06:39:02;;;;;;;32.50;21.77;;;;;;;8.70;83.04;96536.59;5064773;28;20506;-89
2021/04/22 06:41:32;;;;;;;41.20;25.77;;;;;;;8.54;84.16;96541.81;5063196;28;20494;-90
2021/04/22 06:46:48;;;;;;;35.17;24.07;;;;;;;8.53;84.48;96553.81;5065098;28;20450;-90
2021/04/22 06:49:15;;;;;;;33.27;23.80;;;;;;;8.78;82.99;96558.91;5068126;28;20446;-90
2021/04/22 06:51:42;;;;;;;34.83;22.30;;;;;;;8.66;83.13;96563.06;5078805;28;20434;-89
2021/04/22 06:54:10;;;;;;;40.80;23.80;;;;;;;8.57;84.02;96570.34;5077507;28;20451;-89
2021/04/22 06:56:38;;;;;;;42.20;22.90;;;;;;;8.73;82.87;96565.13;5083251;28;20466;-89
2021/04/22 06:59:05;;;;;;;39.53;21.03;;;;;;;8.74;82.59;96569.28;5084114;28;20517;-89
2021/04/22 07:01:34;;;;;;;35.93;22.03;;;;;;;8.87;82.20;96572.63;5081795;28;20495;-89
2021/04/22 07:04:09;;;;;;;33.87;23.23;;;;;;;8.67;83.10;96575.28;5082857;28;20483;-87
2021/04/22 07:06:35;;;;;;;37.60;23.87;;;;;;;8.90;82.48;96568.88;5082810;28;20463;-92
2021/04/22 07:09:05;;;;;;;33.10;21.93;;;;;;;9.07;82.17;96571.22;5083768;28;20441;-90
2021/04/22 07:11:36;;;;;;;33.97;20.63;;;;;;;9.23;80.75;96580.88;5075250;28;20472;-92
2021/04/22 07:14:05;;;;;;;40.33;21.13;;;;;;;9.31;80.26;96584.34;5075930;28;20950;-90
2021/04/22 07:16:33;;;;;;;31.20;21.67;;;;;;;9.25;79.50;96581.06;5062252;28;20460;-90
2021/04/22 07:18:59;;;;;;;29.90;20.80;;;;;;;9.37;78.93;96584.19;5070526;28;20424;-89
2021/04/22 07:21:26;;;;;;;32.47;20.27;;;;;;;9.32;78.77;96596.56;5070441;28;20421;-90
2021/04/22 07:23:52;;;;;;;33.20;20.87;;;;;;;9.36;78.63;96594.28;5064602;28;20485;-91
2021/04/22 07:26:19;;;;;;;37.10;20.40;;;;;;;9.41;78.37;96600.75;5065366;28;20462;-92
2021/04/22 07:28:45;;;;;;;33.70;21.83;;;;;;;9.44;78.25;96594.31;5067042;28;20390;-92
2021/04/22 07:31:20;;;;;;;43.40;20.03;;;;;;;9.48;77.89;96595.44;5064054;28;20394;-92
2021/04/22 07:33:47;;;;;;;37.20;23.13;;;;;;;9.40;77.24;96599.31;5060700;28;20445;-91
2021/04/22 07:36:13;;;;;;;33.00;20.20;;;;;;;9.30;77.89;96604.47;5064292;28;20459;-90
2021/04/22 07:38:42;;;;;;;33.83;22.03;;;;;;;9.20;78.04;96610.81;5060962;28;20400;-88
2021/04/22 07:41:10;;;;;;;34.30;21.40;;;;;;;9.22;78.35;96608.31;5059756;28;20413;-87
2021/04/22 07:43:36;;;;;;;31.40;21.17;;;;;;;9.25;78.27;96605.28;5060040;28;20436;-89
2021/04/22 07:46:05;;;;;;;35.43;20.10;;;;;;;9.31;77.94;96607.84;5060622;28;20504;-88
2021/04/22 07:48:36;;;;;;;29.83;20.30;;;;;;;9.24;78.21;96608.53;5062449;28;20409;-90
2021/04/22 07:51:08;;;;;;;30.10;18.67;;;;;;;9.29;78.32;96613.03;5061272;28;20446;-90
2021/04/22 07:53:39;;;;;;;38.67;21.40;;;;;;;9.36;77.70;96610.44;5064583;28;20451;-91
2021/04/22 07:56:07;;;;;;;30.37;19.50;;;;;;;9.43;77.46;96609.06;5062346;28;20484;-91
2021/04/22 07:58:34;;;;;;;26.17;18.70;;;;;;;9.48;76.81;96622.38;5060306;28;20945;-89
2021/04/22 08:01:00;;;;;;;27.53;19.73;;;;;;;9.45;77.30;96618.06;5061975;28;20394;-88
2021/04/22 08:03:27;;;;;;;31.80;19.10;;;;;;;9.43;76.95;96619.84;5065347;28;20417;-88
2021/04/22 08:05:56;;;;;;;36.60;18.53;;;;;;;9.57;75.67;96621.94;5074108;28;20457;-90
2021/04/22 08:08:27;;;;;;;34.60;18.40;;;;;;;9.32;77.11;96620.81;5076454;28;20518;-91
2021/04/22 08:10:55;;;;;;;33.00;17.90;;;;;;;9.41;76.42;96628.41;5072734;28;20437;-87
2021/04/22 08:13:22;;;;;;;29.77;18.87;;;;;;;9.33;76.62;96624.94;5070926;28;20435;-88
2021/04/22 08:15:53;;;;;;;28.63;18.00;;;;;;;9.47;76.19;96629.00;5074741;28;20453;-89
2021/04/22 08:18:20;;;;;;;30.13;18.80;;;;;;;9.43;76.40;96625.91;5068109;28;20382;-90
2021/04/22 08:20:47;;;;;;;41.23;19.13;;;;;;;9.47;75.37;96626.31;5060761;28;20417;-87
2021/04/22 08:23:13;;;;;;;41.47;18.17;;;;;;;9.56;75.03;96631.25;5061196;28;20413;-87
2021/04/22 08:25:43;;;;;;;31.83;17.37;;;;;;;9.89;74.27;96635.09;5069154;28;20453;-94
2021/04/22 08:28:12;;;;;;;32.43;16.93;;;;;;;10.01;73.87;96628.19;5067157;28;20436;-95
2021/04/22 08:30:43;;;;;;;25.23;16.60;;;;;;;10.09;73.56;96628.94;5072887;28;20443;-89
2021/04/22 08:33:11;;;;;;;26.47;18.67;;;;;;;9.85;73.71;96637.41;5233377;22;20473;-90
2021/04/22 08:35:38;;;;;;;32.07;16.73;;;;;;;10.13;72.87;96644.78;5124246;28;20502;-91
2021/04/22 08:38:05;;;;;;;29.60;17.20;;;;;;;10.02;72.61;96647.78;5124295;28;20511;-88
2021/04/22 08:40:31;;;;;;;26.73;17.47;;;;;;;10.27;72.32;96648.13;5126271;28;20420;-88
2021/04/22 08:43:00;;;;;;;31.40;18.20;;;;;;;10.19;71.86;96651.50;5129931;28;20459;-92
2021/04/22 08:45:27;;;;;;;24.17;17.20;;;;;;;10.07;71.06;96646.91;5127424;28;20532;-88
2021/04/22 08:47:56;;;;;;;29.17;17.27;;;;;;;10.31;70.97;96653.91;5126939;28;20512;-89
2021/04/22 08:50:24;;;;;;;29.73;18.17;;;;;;;10.42;70.38;96654.34;5125729;28;20885;-90
2021/04/22 08:52:52;;;;;;;26.57;16.07;;;;;;;10.40;69.03;96651.44;5123539;28;20492;-89
2021/04/22 08:55:22;;;;;;;28.17;14.93;;;;;;;10.47;69.49;96652.72;5124642;28;20487;-90
2021/04/22 08:57:49;;;;;;;21.33;14.93;;;;;;;10.52;68.71;96658.00;5126908;28;20454;-90
2021/04/22 09:00:18;;;;;;;22.37;15.43;;;;;;;10.70;67.49;96667.06;5125365;28;20402;-91
2021/04/22 09:02:45;;;;;;;23.27;15.27;;;;;;;11.01;65.85;96660.53;5124416;28;21015;-90
2021/04/22 09:05:14;;;;;;;24.10;15.37;;;;;;;11.44;64.79;96667.84;5121010;28;20484;-86
2021/04/22 09:07:40;;;;;;;22.40;14.63;;;;;;;11.28;64.48;96669.78;5121839;28;20524;-85
2021/04/22 09:10:08;;;;;;;25.03;13.93;;;;;;;11.24;64.51;96666.00;5121538;28;20886;-86
2021/04/22 09:12:35;;;;;;;21.07;13.70;;;;;;;11.43;63.95;96671.81;5124293;28;20455;-87
2021/04/22 09:15:04;;;;;;;19.87;13.47;;;;;;;11.51;63.72;96667.13;5120957;28;20462;-86
2021/04/22 09:17:37;;;;;;;30.20;14.77;;;;;;;11.25;63.96;96678.25;5122540;28;20448;-88
2021/04/22 09:20:05;;;;;;;21.37;14.20;;;;;;;11.15;63.50;96680.72;5124286;28;20502;-85
2021/04/22 09:22:38;;;;;;;20.07;12.30;;;;;;;11.13;63.18;96679.84;5122113;28;20436;-85
2021/04/22 09:25:17;;;;;;;23.90;15.40;;;;;;;11.54;62.30;96679.56;5104939;28;20458;-87
2021/04/22 09:27:44;;;;;;;21.87;14.60;;;;;;;11.77;61.72;96691.19;5121746;28;20857;-88
2021/04/22 09:30:12;;;;;;;23.93;14.83;;;;;;;11.75;61.35;96690.25;5123663;28;20436;-88
2021/04/22 09:32:38;;;;;;;27.30;15.67;;;;;;;11.95;61.57;96688.66;5123663;28;20420;-89
2021/04/22 09:35:07;;;;;;;28.40;14.27;;;;;;;11.84;62.14;96684.31;5125291;28;20543;-88
2021/04/22 09:37:43;;;;;;;22.23;13.47;;;;;;;12.05;60.73;96684.88;5124032;28;20460;-90
2021/04/22 09:40:18;;;;;;;23.40;13.50;;;;;;;11.91;60.30;96686.28;5123501;28;20470;-90
2021/04/22 09:42:44;;;;;;;25.60;14.40;;;;;;;11.56;61.75;96682.44;5121384;28;20875;-89
2021/04/22 09:45:12;;;;;;;21.30;14.20;;;;;;;11.68;60.59;96688.25;5122646;28;20525;-88
2021/04/22 09:47:38;;;;;;;15.30;12.33;;;;;;;12.06;60.12;96683.59;5122815;28;20502;-88
2021/04/22 09:50:09;;;;;;;20.27;12.93;;;;;;;12.24;59.09;96687.91;5125079;28;20475;-91
2021/04/22 09:52:39;;;;;;;28.77;13.10;;;;;;;12.38;59.10;96685.00;5125244;28;20410;-90
2021/04/22 09:55:09;;;;;;;17.17;11.93;;;;;;;12.45;58.03;96687.69;5123068;28;20451;-91
2021/04/22 09:57:44;;;;;;;28.27;13.47;;;;;;;12.51;57.18;96692.91;5122065;28;20483;-90
2021/04/22 10:00:48;;;;;;;;;;;;;;;;;;;;;
2021/04/22 10:03:26;;;;;;;;;;;;;;;;;;;;;
2021/04/22 10:06:23;;;;;;;;;;;;;;;;;;;;;
2021/04/22 10:09:08;;;;;;;16.57;11.57;;;;;;;12.40;55.67;96699.44;5120430;28;20483;-92
2021/04/22 10:15:55;;;;;;;;;;;;;;;;;;;;;
2021/04/22 10:18:55;;;;;;;;;;;;;;;;;;;;;
2021/04/22 10:21:24;;;;;;;19.10;10.20;;;;;;;12.41;52.86;96695.47;5128555;28;20468;-91
2021/04/22 10:23:51;;;;;;;18.80;8.67;;;;;;;12.49;52.45;96690.03;5137843;28;20440;-92
2021/04/22 10:26:39;;;;;;;16.77;9.77;;;;;;;12.21;51.76;96685.56;5131236;28;20427;-92
2021/04/22 10:29:14;;;;;;;12.57;7.90;;;;;;;12.01;52.54;96689.19;5123457;28;20426;-92
2021/04/22 10:31:40;;;;;;;13.30;8.00;;;;;;;12.03;51.32;96695.50;5124397;28;20398;-92
2021/04/22 10:34:09;;;;;;;10.93;6.83;;;;;;;12.47;49.85;96696.00;5123654;28;20452;-91
2021/04/22 10:36:38;;;;;;;15.43;8.80;;;;;;;12.61;49.07;96685.69;5124891;28;20518;-93
2021/04/22 10:39:06;;;;;;;12.37;7.23;;;;;;;12.80;47.08;96691.41;5124059;28;20439;-92
2021/04/22 10:41:35;;;;;;;16.77;7.13;;;;;;;12.52;48.72;96683.53;5124667;28;20428;-93
2021/04/22 10:44:07;;;;;;;11.57;7.33;;;;;;;12.37;44.82;96683.56;5123486;28;20483;-92
2021/04/22 10:46:49;;;;;;;;;;;;;;;;;;;;;
2021/04/22 10:49:16;;;;;;;10.77;5.63;;;;;;;12.32;46.11;96685.19;5116242;28;20507;-91
2021/04/22 10:51:44;;;;;;;17.07;6.93;;;;;;;12.51;46.28;96688.22;5116895;28;20899;-92
2021/04/22 10:54:10;;;;;;;14.57;5.90;;;;;;;12.52;43.98;96686.25;5123905;28;20457;-92
2021/04/22 10:56:36;;;;;;;14.17;6.50;;;;;;;12.99;45.00;96677.44;5120972;28;20543;-92
2021/04/22 10:59:10;;;;;;;12.93;5.40;;;;;;;13.33;45.36;96683.81;5102550;28;20452;-92
2021/04/22 11:01:39;;;;;;;9.03;5.50;;;;;;;13.21;42.50;96674.66;5118393;28;20501;-92
2021/04/22 11:04:08;;;;;;;11.97;5.67;;;;;;;13.19;41.83;96677.19;5118017;28;20429;-92
2021/04/22 11:06:37;;;;;;;7.20;4.80;;;;;;;13.37;42.72;96680.72;5117556;28;20424;-92
2021/04/22 11:09:20;;;;;;;10.93;5.60;;;;;;;13.31;39.53;96675.47;5109476;28;20467;-91
2021/04/22 11:11:56;;;;;;;14.10;5.97;;;;;;;12.90;40.24;96679.44;5103106;28;20782;-91
2021/04/22 11:14:33;;;;;;;10.20;4.97;;;;;;;13.27;40.21;96688.00;5124494;28;20418;-91
2021/04/22 11:17:00;;;;;;;10.40;5.00;;;;;;;13.44;41.02;96682.66;5126112;28;20467;-91
2021/04/22 11:19:33;;;;;;;14.77;4.90;;;;;;;13.37;39.40;96686.13;5129046;28;20444;-92
2021/04/22 11:22:01;;;;;;;16.03;5.20;;;;;;;13.37;37.94;96692.25;5127303;28;20452;-93
2021/04/22 11:24:30;;;;;;;7.20;5.00;;;;;;;13.10;38.58;96675.06;5127229;28;20593;-93
2021/04/22 11:27:03;;;;;;;8.80;4.50;;;;;;;13.13;38.04;96678.66;5129718;28;20478;-93
2021/04/22 11:29:44;;;;;;;6.20;3.80;;;;;;;13.25;37.62;96679.69;5128178;28;20462;-93
2021/04/22 11:32:33;;;;;;;8.17;3.90;;;;;;;13.16;36.84;96675.56;5118593;28;20444;-92
2021/04/22 11:35:13;;;;;;;8.37;4.20;;;;;;;13.34;38.28;96671.69;5099180;28;20483;-91
2021/04/22 11:37:41;;;;;;;7.13;4.70;;;;;;;13.53;38.01;96682.06;5103611;28;20478;-92
2021/04/22 11:40:13;;;;;;;8.83;4.30;;;;;;;13.28;39.42;96668.47;5104812;28;20437;-91